sensor_id;sensor_type;location;lat;lon;timestamp;temperature;humidity
41220;DHT22;26951;47.338;9.196;2022-08-14T00:01:54;12.30;52.80
41220;DHT22;26951;47.338;9.196;2022-08-14T00:04:38;12.30;52.90
41220;DHT22;26951;47.338;9.196;2022-08-14T00:07:22;12.30;53.00
41220;DHT22;26951;47.338;9.196;2022-08-14T00:10:13;12.30;53.40
41220;DHT22;26951;47.338;9.196;2022-08-14T00:12:57;12.30;53.10
41220;DHT22;26951;47.338;9.196;2022-08-14T00:15:43;12.30;52.90
41220;DHT22;26951;47.338;9.196;2022-08-14T00:18:28;12.30;53.10
41220;DHT22;26951;47.338;9.196;2022-08-14T00:21:13;12.30;52.90
41220;DHT22;26951;47.338;9.196;2022-08-14T00:23:57;12.30;52.40
41220;DHT22;26951;47.338;9.196;2022-08-14T00:26:41;12.30;52.60
41220;DHT22;26951;47.338;9.196;2022-08-14T00:29:25;12.40;52.80
41220;DHT22;26951;47.338;9.196;2022-08-14T00:32:09;12.30;52.30
41220;DHT22;26951;47.338;9.196;2022-08-14T00:34:55;12.30;52.50
41220;DHT22;26951;47.338;9.196;2022-08-14T00:37:45;12.30;52.70
41220;DHT22;26951;47.338;9.196;2022-08-14T00:40:29;12.30;52.60
41220;DHT22;26951;47.338;9.196;2022-08-14T00:43:14;12.30;53.10
41220;DHT22;26951;47.338;9.196;2022-08-14T00:46:03;12.30;53.20
41220;DHT22;26951;47.338;9.196;2022-08-14T00:48:48;12.30;52.90
41220;DHT22;26951;47.338;9.196;2022-08-14T00:51:33;12.30;52.70
41220;DHT22;26951;47.338;9.196;2022-08-14T00:54:18;12.30;52.80
41220;DHT22;26951;47.338;9.196;2022-08-14T00:57:03;12.30;52.90
41220;DHT22;26951;47.338;9.196;2022-08-14T00:59:47;12.30;52.90
41220;DHT22;26951;47.338;9.196;2022-08-14T01:02:32;12.20;52.90
41220;DHT22;26951;47.338;9.196;2022-08-14T01:05:19;12.20;53.30
41220;DHT22;26951;47.338;9.196;2022-08-14T01:08:09;12.20;54.20
41220;DHT22;26951;47.338;9.196;2022-08-14T01:10:56;12.20;53.80
41220;DHT22;26951;47.338;9.196;2022-08-14T01:13:42;12.10;52.30
41220;DHT22;26951;47.338;9.196;2022-08-14T01:16:28;12.10;52.50
41220;DHT22;26951;47.338;9.196;2022-08-14T01:19:14;12.10;53.10
41220;DHT22;26951;47.338;9.196;2022-08-14T01:22:17;12.00;52.90
41220;DHT22;26951;47.338;9.196;2022-08-14T01:25:01;11.90;52.90
41220;DHT22;26951;47.338;9.196;2022-08-14T01:27:47;11.90;53.50
41220;DHT22;26951;47.338;9.196;2022-08-14T01:30:31;11.80;53.30
41220;DHT22;26951;47.338;9.196;2022-08-14T01:33:19;11.80;54.00
41220;DHT22;26951;47.338;9.196;2022-08-14T01:36:06;11.70;54.30
41220;DHT22;26951;47.338;9.196;2022-08-14T01:38:52;11.70;54.30
41220;DHT22;26951;47.338;9.196;2022-08-14T01:41:42;11.80;55.30
41220;DHT22;26951;47.338;9.196;2022-08-14T01:44:27;11.70;54.80
41220;DHT22;26951;47.338;9.196;2022-08-14T01:47:14;11.70;55.00
41220;DHT22;26951;47.338;9.196;2022-08-14T01:49:58;11.70;55.90
41220;DHT22;26951;47.338;9.196;2022-08-14T01:52:42;11.70;55.50
41220;DHT22;26951;47.338;9.196;2022-08-14T01:55:27;11.70;55.00
41220;DHT22;26951;47.338;9.196;2022-08-14T01:58:14;11.70;55.70
41220;DHT22;26951;47.338;9.196;2022-08-14T02:00:58;11.70;56.00
41220;DHT22;26951;47.338;9.196;2022-08-14T02:03:43;11.70;55.10
41220;DHT22;26951;47.338;9.196;2022-08-14T02:06:28;11.60;55.80
41220;DHT22;26951;47.338;9.196;2022-08-14T02:09:13;11.60;54.70
41220;DHT22;26951;47.338;9.196;2022-08-14T02:11:57;11.60;55.30
41220;DHT22;26951;47.338;9.196;2022-08-14T02:14:41;11.60;55.80
41220;DHT22;26951;47.338;9.196;2022-08-14T02:17:26;11.60;56.00
41220;DHT22;26951;47.338;9.196;2022-08-14T02:20:10;11.60;55.40
41220;DHT22;26951;47.338;9.196;2022-08-14T02:22:57;11.60;55.10
41220;DHT22;26951;47.338;9.196;2022-08-14T02:25:41;11.60;54.60
41220;DHT22;26951;47.338;9.196;2022-08-14T02:28:25;11.60;56.40
41220;DHT22;26951;47.338;9.196;2022-08-14T02:31:11;11.60;55.90
41220;DHT22;26951;47.338;9.196;2022-08-14T02:33:55;11.60;55.70
41220;DHT22;26951;47.338;9.196;2022-08-14T02:36:40;11.50;56.00
41220;DHT22;26951;47.338;9.196;2022-08-14T02:39:25;11.50;55.80
41220;DHT22;26951;47.338;9.196;2022-08-14T02:42:17;11.50;56.20
41220;DHT22;26951;47.338;9.196;2022-08-14T02:45:05;11.60;57.20
41220;DHT22;26951;47.338;9.196;2022-08-14T02:47:49;11.60;56.50
41220;DHT22;26951;47.338;9.196;2022-08-14T02:50:34;11.60;56.40
41220;DHT22;26951;47.338;9.196;2022-08-14T02:53:20;11.60;56.10
41220;DHT22;26951;47.338;9.196;2022-08-14T02:56:05;11.50;55.50
41220;DHT22;26951;47.338;9.196;2022-08-14T02:58:51;11.60;56.80
41220;DHT22;26951;47.338;9.196;2022-08-14T03:01:35;11.50;56.00
41220;DHT22;26951;47.338;9.196;2022-08-14T03:04:20;11.50;55.40
41220;DHT22;26951;47.338;9.196;2022-08-14T03:07:04;11.40;55.70
41220;DHT22;26951;47.338;9.196;2022-08-14T03:09:49;11.50;56.30
41220;DHT22;26951;47.338;9.196;2022-08-14T03:12:33;11.40;56.00
41220;DHT22;26951;47.338;9.196;2022-08-14T03:15:17;11.40;56.70
41220;DHT22;26951;47.338;9.196;2022-08-14T03:18:01;11.40;57.10
41220;DHT22;26951;47.338;9.196;2022-08-14T03:20:45;11.40;57.80
41220;DHT22;26951;47.338;9.196;2022-08-14T03:23:29;11.40;57.10
41220;DHT22;26951;47.338;9.196;2022-08-14T03:26:19;11.50;56.90
41220;DHT22;26951;47.338;9.196;2022-08-14T03:29:04;11.50;56.60
41220;DHT22;26951;47.338;9.196;2022-08-14T03:31:49;11.60;56.30
41220;DHT22;26951;47.338;9.196;2022-08-14T03:34:35;11.60;55.90
41220;DHT22;26951;47.338;9.196;2022-08-14T03:37:20;11.70;56.20
41220;DHT22;26951;47.338;9.196;2022-08-14T03:40:05;11.70;56.60
41220;DHT22;26951;47.338;9.196;2022-08-14T03:42:49;11.70;56.60
41220;DHT22;26951;47.338;9.196;2022-08-14T03:45:35;11.70;56.00
41220;DHT22;26951;47.338;9.196;2022-08-14T03:48:19;11.70;56.50
41220;DHT22;26951;47.338;9.196;2022-08-14T03:51:06;11.70;57.20
41220;DHT22;26951;47.338;9.196;2022-08-14T03:53:56;11.60;55.80
41220;DHT22;26951;47.338;9.196;2022-08-14T03:56:40;11.50;56.10
41220;DHT22;26951;47.338;9.196;2022-08-14T03:59:27;11.50;56.00
41220;DHT22;26951;47.338;9.196;2022-08-14T04:02:11;11.50;55.80
41220;DHT22;26951;47.338;9.196;2022-08-14T04:04:55;11.40;56.00
41220;DHT22;26951;47.338;9.196;2022-08-14T04:07:40;11.40;55.40
41220;DHT22;26951;47.338;9.196;2022-08-14T04:10:25;11.30;55.40
41220;DHT22;26951;47.338;9.196;2022-08-14T04:13:09;11.30;55.70
41220;DHT22;26951;47.338;9.196;2022-08-14T04:15:53;11.30;57.00
41220;DHT22;26951;47.338;9.196;2022-08-14T04:18:42;11.30;57.00
41220;DHT22;26951;47.338;9.196;2022-08-14T04:21:28;11.30;56.60
41220;DHT22;26951;47.338;9.196;2022-08-14T04:24:12;11.30;56.40
41220;DHT22;26951;47.338;9.196;2022-08-14T04:26:57;11.30;56.20
41220;DHT22;26951;47.338;9.196;2022-08-14T04:29:42;11.30;57.80
41220;DHT22;26951;47.338;9.196;2022-08-14T04:32:27;11.30;57.10
41220;DHT22;26951;47.338;9.196;2022-08-14T04:35:11;11.30;57.40
41220;DHT22;26951;47.338;9.196;2022-08-14T04:37:56;11.30;57.70
41220;DHT22;26951;47.338;9.196;2022-08-14T04:40:59;11.30;57.80
41220;DHT22;26951;47.338;9.196;2022-08-14T04:44:04;11.20;57.60
41220;DHT22;26951;47.338;9.196;2022-08-14T04:46:48;11.20;57.80
41220;DHT22;26951;47.338;9.196;2022-08-14T04:49:51;11.20;58.10
41220;DHT22;26951;47.338;9.196;2022-08-14T04:52:35;11.30;58.20
41220;DHT22;26951;47.338;9.196;2022-08-14T04:55:19;11.30;58.40
41220;DHT22;26951;47.338;9.196;2022-08-14T04:58:04;11.40;58.70
41220;DHT22;26951;47.338;9.196;2022-08-14T05:00:50;11.40;58.90
41220;DHT22;26951;47.338;9.196;2022-08-14T05:03:35;11.50;59.70
41220;DHT22;26951;47.338;9.196;2022-08-14T05:06:20;11.50;59.60
41220;DHT22;26951;47.338;9.196;2022-08-14T05:09:06;11.50;59.10
41220;DHT22;26951;47.338;9.196;2022-08-14T05:11:50;11.60;59.20
41220;DHT22;26951;47.338;9.196;2022-08-14T05:14:36;11.60;59.30
41220;DHT22;26951;47.338;9.196;2022-08-14T05:17:20;11.70;59.40
41220;DHT22;26951;47.338;9.196;2022-08-14T05:20:08;11.80;59.30
41220;DHT22;26951;47.338;9.196;2022-08-14T05:22:53;11.80;59.40
41220;DHT22;26951;47.338;9.196;2022-08-14T05:25:39;11.80;59.80
41220;DHT22;26951;47.338;9.196;2022-08-14T05:28:25;11.80;59.40
41220;DHT22;26951;47.338;9.196;2022-08-14T05:31:11;11.80;59.20
41220;DHT22;26951;47.338;9.196;2022-08-14T05:33:56;11.80;59.30
41220;DHT22;26951;47.338;9.196;2022-08-14T05:36:40;11.90;59.40
41220;DHT22;26951;47.338;9.196;2022-08-14T05:39:25;11.90;59.60
41220;DHT22;26951;47.338;9.196;2022-08-14T05:42:09;12.00;61.00
41220;DHT22;26951;47.338;9.196;2022-08-14T05:44:53;12.00;60.90
41220;DHT22;26951;47.338;9.196;2022-08-14T05:47:39;12.00;60.40
41220;DHT22;26951;47.338;9.196;2022-08-14T05:50:23;12.10;61.20
41220;DHT22;26951;47.338;9.196;2022-08-14T05:53:08;12.20;62.00
41220;DHT22;26951;47.338;9.196;2022-08-14T05:55:53;12.30;62.50
41220;DHT22;26951;47.338;9.196;2022-08-14T05:58:38;12.40;63.30
41220;DHT22;26951;47.338;9.196;2022-08-14T06:01:23;12.50;64.60
41220;DHT22;26951;47.338;9.196;2022-08-14T06:04:07;12.70;66.40
41220;DHT22;26951;47.338;9.196;2022-08-14T06:06:51;13.00;68.50
41220;DHT22;26951;47.338;9.196;2022-08-14T06:09:35;13.40;74.00
41220;DHT22;26951;47.338;9.196;2022-08-14T06:12:19;13.70;77.20
41220;DHT22;26951;47.338;9.196;2022-08-14T06:15:05;14.20;81.90
41220;DHT22;26951;47.338;9.196;2022-08-14T06:17:52;14.70;82.70
41220;DHT22;26951;47.338;9.196;2022-08-14T06:20:38;15.20;78.80
41220;DHT22;26951;47.338;9.196;2022-08-14T06:23:22;15.80;76.10
41220;DHT22;26951;47.338;9.196;2022-08-14T06:26:06;16.40;73.30
41220;DHT22;26951;47.338;9.196;2022-08-14T06:28:50;17.10;71.40
41220;DHT22;26951;47.338;9.196;2022-08-14T06:31:35;17.80;65.20
41220;DHT22;26951;47.338;9.196;2022-08-14T06:34:19;18.30;63.20
41220;DHT22;26951;47.338;9.196;2022-08-14T06:37:03;18.90;59.20
41220;DHT22;26951;47.338;9.196;2022-08-14T06:39:48;19.50;58.50
41220;DHT22;26951;47.338;9.196;2022-08-14T06:42:32;20.00;57.30
41220;DHT22;26951;47.338;9.196;2022-08-14T06:45:17;20.50;55.60
41220;DHT22;26951;47.338;9.196;2022-08-14T06:48:03;21.00;51.00
41220;DHT22;26951;47.338;9.196;2022-08-14T06:50:49;21.30;48.10
41220;DHT22;26951;47.338;9.196;2022-08-14T06:53:33;21.60;45.60
41220;DHT22;26951;47.338;9.196;2022-08-14T06:56:18;21.80;45.90
41220;DHT22;26951;47.338;9.196;2022-08-14T06:59:02;22.10;45.70
41220;DHT22;26951;47.338;9.196;2022-08-14T07:01:46;22.40;46.40
41220;DHT22;26951;47.338;9.196;2022-08-14T07:04:49;22.70;41.50
41220;DHT22;26951;47.338;9.196;2022-08-14T07:07:53;23.10;41.20
41220;DHT22;26951;47.338;9.196;2022-08-14T07:10:37;23.40;39.70
41220;DHT22;26951;47.338;9.196;2022-08-14T07:13:21;23.70;40.30
41220;DHT22;26951;47.338;9.196;2022-08-14T07:16:07;23.90;40.20
41220;DHT22;26951;47.338;9.196;2022-08-14T07:18:52;24.10;37.80
41220;DHT22;26951;47.338;9.196;2022-08-14T07:21:36;24.30;36.00
41220;DHT22;26951;47.338;9.196;2022-08-14T07:24:20;24.40;35.80
41220;DHT22;26951;47.338;9.196;2022-08-14T07:27:05;24.70;33.50
41220;DHT22;26951;47.338;9.196;2022-08-14T07:29:49;25.00;32.10
41220;DHT22;26951;47.338;9.196;2022-08-14T07:32:33;25.30;36.00
41220;DHT22;26951;47.338;9.196;2022-08-14T07:35:17;25.60;34.60
41220;DHT22;26951;47.338;9.196;2022-08-14T07:38:03;25.80;33.90
41220;DHT22;26951;47.338;9.196;2022-08-14T07:40:48;26.00;34.10
41220;DHT22;26951;47.338;9.196;2022-08-14T07:43:33;26.20;33.60
41220;DHT22;26951;47.338;9.196;2022-08-14T07:46:18;26.30;32.30
41220;DHT22;26951;47.338;9.196;2022-08-14T07:49:03;26.40;32.40
41220;DHT22;26951;47.338;9.196;2022-08-14T07:51:47;26.50;30.00
41220;DHT22;26951;47.338;9.196;2022-08-14T07:54:31;26.50;29.10
41220;DHT22;26951;47.338;9.196;2022-08-14T07:57:15;26.50;30.60
41220;DHT22;26951;47.338;9.196;2022-08-14T08:00:01;26.70;29.10
41220;DHT22;26951;47.338;9.196;2022-08-14T08:02:47;26.80;29.40
41220;DHT22;26951;47.338;9.196;2022-08-14T08:05:32;27.00;30.00
41220;DHT22;26951;47.338;9.196;2022-08-14T08:08:18;27.20;30.20
41220;DHT22;26951;47.338;9.196;2022-08-14T08:11:04;27.30;30.70
41220;DHT22;26951;47.338;9.196;2022-08-14T08:13:49;27.40;29.90
41220;DHT22;26951;47.338;9.196;2022-08-14T08:16:34;27.60;29.80
41220;DHT22;26951;47.338;9.196;2022-08-14T08:19:21;27.60;29.60
41220;DHT22;26951;47.338;9.196;2022-08-14T08:22:05;27.80;28.20
41220;DHT22;26951;47.338;9.196;2022-08-14T08:24:49;27.90;28.10
41220;DHT22;26951;47.338;9.196;2022-08-14T08:27:34;28.20;29.10
41220;DHT22;26951;47.338;9.196;2022-08-14T08:30:20;28.40;28.10
41220;DHT22;26951;47.338;9.196;2022-08-14T08:33:05;28.60;28.40
41220;DHT22;26951;47.338;9.196;2022-08-14T08:35:49;28.70;27.20
41220;DHT22;26951;47.338;9.196;2022-08-14T08:38:34;28.70;28.30
41220;DHT22;26951;47.338;9.196;2022-08-14T08:41:19;28.80;27.00
41220;DHT22;26951;47.338;9.196;2022-08-14T08:44:04;28.70;29.00
41220;DHT22;26951;47.338;9.196;2022-08-14T08:46:56;28.70;28.20
41220;DHT22;26951;47.338;9.196;2022-08-14T08:49:42;28.70;27.90
41220;DHT22;26951;47.338;9.196;2022-08-14T08:52:27;28.60;27.10
41220;DHT22;26951;47.338;9.196;2022-08-14T08:55:11;28.60;27.00
41220;DHT22;26951;47.338;9.196;2022-08-14T08:57:58;28.50;28.40
41220;DHT22;26951;47.338;9.196;2022-08-14T09:00:49;28.40;27.70
41220;DHT22;26951;47.338;9.196;2022-08-14T09:03:34;28.40;28.10
41220;DHT22;26951;47.338;9.196;2022-08-14T09:06:19;28.60;27.90
41220;DHT22;26951;47.338;9.196;2022-08-14T09:09:03;28.60;29.10
41220;DHT22;26951;47.338;9.196;2022-08-14T09:11:48;28.60;28.30
41220;DHT22;26951;47.338;9.196;2022-08-14T09:14:32;28.60;28.10
41220;DHT22;26951;47.338;9.196;2022-08-14T09:17:19;28.80;30.90
41220;DHT22;26951;47.338;9.196;2022-08-14T09:20:04;28.90;28.50
41220;DHT22;26951;47.338;9.196;2022-08-14T09:22:49;29.10;29.10
41220;DHT22;26951;47.338;9.196;2022-08-14T09:25:34;29.30;30.90
41220;DHT22;26951;47.338;9.196;2022-08-14T09:28:19;29.50;29.80
41220;DHT22;26951;47.338;9.196;2022-08-14T09:31:04;29.60;29.00
41220;DHT22;26951;47.338;9.196;2022-08-14T09:34:00;29.70;27.90
41220;DHT22;26951;47.338;9.196;2022-08-14T09:43:33;30.10;28.30
41220;DHT22;26951;47.338;9.196;2022-08-14T09:46:23;30.20;29.70
41220;DHT22;26951;47.338;9.196;2022-08-14T09:49:10;30.30;29.50
41220;DHT22;26951;47.338;9.196;2022-08-14T09:52:05;30.30;28.10
41220;DHT22;26951;47.338;9.196;2022-08-14T09:54:49;30.20;28.00
41220;DHT22;26951;47.338;9.196;2022-08-14T09:57:33;30.10;28.80
41220;DHT22;26951;47.338;9.196;2022-08-14T10:00:21;30.30;28.80
41220;DHT22;26951;47.338;9.196;2022-08-14T10:06:14;30.50;26.80
41220;DHT22;26951;47.338;9.196;2022-08-14T10:11:56;30.60;28.70
41220;DHT22;26951;47.338;9.196;2022-08-14T10:14:41;30.60;28.70
41220;DHT22;26951;47.338;9.196;2022-08-14T10:17:25;30.60;28.20
41220;DHT22;26951;47.338;9.196;2022-08-14T10:20:09;30.60;27.10
41220;DHT22;26951;47.338;9.196;2022-08-14T10:23:08;30.60;27.70
41220;DHT22;26951;47.338;9.196;2022-08-14T10:26:02;30.50;27.80
41220;DHT22;26951;47.338;9.196;2022-08-14T10:28:48;30.40;27.70
41220;DHT22;26951;47.338;9.196;2022-08-14T10:31:33;30.30;27.40
41220;DHT22;26951;47.338;9.196;2022-08-14T10:34:18;30.30;27.20
41220;DHT22;26951;47.338;9.196;2022-08-14T10:37:09;30.10;26.50
41220;DHT22;26951;47.338;9.196;2022-08-14T10:40:01;30.00;26.90
41220;DHT22;26951;47.338;9.196;2022-08-14T10:42:45;30.00;27.20
41220;DHT22;26951;47.338;9.196;2022-08-14T10:45:33;30.00;26.60
41220;DHT22;26951;47.338;9.196;2022-08-14T10:48:17;30.00;27.80
41220;DHT22;26951;47.338;9.196;2022-08-14T10:51:02;29.90;27.50
41220;DHT22;26951;47.338;9.196;2022-08-14T10:53:53;29.80;27.90
41220;DHT22;26951;47.338;9.196;2022-08-14T10:56:38;29.80;27.40
41220;DHT22;26951;47.338;9.196;2022-08-14T10:59:22;29.60;26.90
41220;DHT22;26951;47.338;9.196;2022-08-14T11:02:16;29.50;26.60
41220;DHT22;26951;47.338;9.196;2022-08-14T11:07:58;29.50;26.80
41220;DHT22;26951;47.338;9.196;2022-08-14T11:10:54;29.40;28.10
41220;DHT22;26951;47.338;9.196;2022-08-14T11:13:41;29.40;26.70
41220;DHT22;26951;47.338;9.196;2022-08-14T11:16:33;29.40;26.90
41220;DHT22;26951;47.338;9.196;2022-08-14T11:19:20;29.50;26.30
41220;DHT22;26951;47.338;9.196;2022-08-14T11:22:05;29.60;28.00
41220;DHT22;26951;47.338;9.196;2022-08-14T11:24:50;29.50;28.80
41220;DHT22;26951;47.338;9.196;2022-08-14T11:27:34;29.50;27.20
41220;DHT22;26951;47.338;9.196;2022-08-14T11:30:20;29.50;26.40
41220;DHT22;26951;47.338;9.196;2022-08-14T11:33:05;29.40;27.80
41220;DHT22;26951;47.338;9.196;2022-08-14T11:35:50;29.30;27.70
41220;DHT22;26951;47.338;9.196;2022-08-14T11:38:39;29.30;27.70
41220;DHT22;26951;47.338;9.196;2022-08-14T11:41:24;29.20;26.50
41220;DHT22;26951;47.338;9.196;2022-08-14T11:44:10;29.00;27.20
41220;DHT22;26951;47.338;9.196;2022-08-14T11:46:54;28.90;27.70
41220;DHT22;26951;47.338;9.196;2022-08-14T11:49:39;28.90;28.50
41220;DHT22;26951;47.338;9.196;2022-08-14T11:52:33;28.80;29.20
41220;DHT22;26951;47.338;9.196;2022-08-14T11:55:17;28.90;29.00
41220;DHT22;26951;47.338;9.196;2022-08-14T11:58:05;28.90;28.40
41220;DHT22;26951;47.338;9.196;2022-08-14T12:00:57;29.10;27.60
41220;DHT22;26951;47.338;9.196;2022-08-14T12:03:47;29.10;28.50
41220;DHT22;26951;47.338;9.196;2022-08-14T12:06:32;29.10;28.40
41220;DHT22;26951;47.338;9.196;2022-08-14T12:09:31;29.10;29.00
41220;DHT22;26951;47.338;9.196;2022-08-14T12:12:18;29.10;28.30
41220;DHT22;26951;47.338;9.196;2022-08-14T12:15:03;29.00;27.50
41220;DHT22;26951;47.338;9.196;2022-08-14T12:17:48;29.00;27.10
41220;DHT22;26951;47.338;9.196;2022-08-14T12:20:34;28.90;27.20
41220;DHT22;26951;47.338;9.196;2022-08-14T12:23:24;28.90;28.60
41220;DHT22;26951;47.338;9.196;2022-08-14T12:26:12;28.80;28.20
41220;DHT22;26951;47.338;9.196;2022-08-14T12:29:14;28.70;28.50
41220;DHT22;26951;47.338;9.196;2022-08-14T12:32:02;28.50;28.10
41220;DHT22;26951;47.338;9.196;2022-08-14T12:34:53;28.50;28.30
41220;DHT22;26951;47.338;9.196;2022-08-14T12:37:38;28.40;28.50
41220;DHT22;26951;47.338;9.196;2022-08-14T12:40:22;28.30;28.80
41220;DHT22;26951;47.338;9.196;2022-08-14T12:43:08;28.20;27.10
41220;DHT22;26951;47.338;9.196;2022-08-14T12:45:53;28.10;27.70
41220;DHT22;26951;47.338;9.196;2022-08-14T12:48:43;27.90;28.30
41220;DHT22;26951;47.338;9.196;2022-08-14T12:51:29;27.80;28.10
41220;DHT22;26951;47.338;9.196;2022-08-14T12:54:18;27.60;28.40
41220;DHT22;26951;47.338;9.196;2022-08-14T12:59:52;27.50;29.30
41220;DHT22;26951;47.338;9.196;2022-08-14T13:02:39;27.50;29.70
41220;DHT22;26951;47.338;9.196;2022-08-14T13:05:29;27.40;30.00
41220;DHT22;26951;47.338;9.196;2022-08-14T13:08:14;27.40;29.00
41220;DHT22;26951;47.338;9.196;2022-08-14T13:10:59;27.40;28.90
41220;DHT22;26951;47.338;9.196;2022-08-14T13:13:43;27.40;29.50
41220;DHT22;26951;47.338;9.196;2022-08-14T13:16:43;27.50;30.30
41220;DHT22;26951;47.338;9.196;2022-08-14T13:19:28;27.80;29.70
41220;DHT22;26951;47.338;9.196;2022-08-14T13:22:13;27.90;27.80
41220;DHT22;26951;47.338;9.196;2022-08-14T13:24:57;28.10;30.00
41220;DHT22;26951;47.338;9.196;2022-08-14T13:27:43;28.30;27.50
41220;DHT22;26951;47.338;9.196;2022-08-14T13:30:27;28.40;27.30
41220;DHT22;26951;47.338;9.196;2022-08-14T13:33:12;28.60;28.30
41220;DHT22;26951;47.338;9.196;2022-08-14T13:35:58;28.60;28.40
41220;DHT22;26951;47.338;9.196;2022-08-14T13:38:43;28.60;28.00
41220;DHT22;26951;47.338;9.196;2022-08-14T13:41:27;28.50;27.00
41220;DHT22;26951;47.338;9.196;2022-08-14T13:44:12;28.30;28.30
41220;DHT22;26951;47.338;9.196;2022-08-14T13:46:58;28.30;27.70
41220;DHT22;26951;47.338;9.196;2022-08-14T13:49:42;28.30;28.20
41220;DHT22;26951;47.338;9.196;2022-08-14T13:52:32;28.20;27.20
41220;DHT22;26951;47.338;9.196;2022-08-14T13:55:19;28.10;28.10
41220;DHT22;26951;47.338;9.196;2022-08-14T13:58:10;28.10;27.30
41220;DHT22;26951;47.338;9.196;2022-08-14T14:00:55;27.90;29.10
41220;DHT22;26951;47.338;9.196;2022-08-14T14:03:44;28.00;29.30
41220;DHT22;26951;47.338;9.196;2022-08-14T14:06:33;28.20;28.10
41220;DHT22;26951;47.338;9.196;2022-08-14T14:09:24;28.30;26.70
41220;DHT22;26951;47.338;9.196;2022-08-14T14:12:12;28.30;26.90
41220;DHT22;26951;47.338;9.196;2022-08-14T14:14:58;28.30;26.30
41220;DHT22;26951;47.338;9.196;2022-08-14T14:17:44;28.40;28.40
41220;DHT22;26951;47.338;9.196;2022-08-14T14:20:30;28.50;27.30
41220;DHT22;26951;47.338;9.196;2022-08-14T14:23:14;28.50;27.80
41220;DHT22;26951;47.338;9.196;2022-08-14T14:25:59;28.60;27.20
41220;DHT22;26951;47.338;9.196;2022-08-14T14:28:50;28.60;26.90
41220;DHT22;26951;47.338;9.196;2022-08-14T14:31:35;28.60;26.50
41220;DHT22;26951;47.338;9.196;2022-08-14T14:34:23;28.50;27.60
41220;DHT22;26951;47.338;9.196;2022-08-14T14:37:12;28.40;27.00
41220;DHT22;26951;47.338;9.196;2022-08-14T14:39:58;28.30;28.40
41220;DHT22;26951;47.338;9.196;2022-08-14T14:42:47;28.30;29.10
41220;DHT22;26951;47.338;9.196;2022-08-14T14:45:33;28.10;27.50
41220;DHT22;26951;47.338;9.196;2022-08-14T14:48:18;27.90;27.60
41220;DHT22;26951;47.338;9.196;2022-08-14T14:51:02;27.70;27.50
41220;DHT22;26951;47.338;9.196;2022-08-14T14:53:51;27.60;28.90
41220;DHT22;26951;47.338;9.196;2022-08-14T14:56:39;27.50;28.70
41220;DHT22;26951;47.338;9.196;2022-08-14T14:59:25;27.30;28.30
41220;DHT22;26951;47.338;9.196;2022-08-14T15:02:22;27.10;29.10
41220;DHT22;26951;47.338;9.196;2022-08-14T15:05:11;27.10;30.00
41220;DHT22;26951;47.338;9.196;2022-08-14T15:07:55;27.10;28.70
41220;DHT22;26951;47.338;9.196;2022-08-14T15:10:39;26.90;28.90
41220;DHT22;26951;47.338;9.196;2022-08-14T15:13:23;26.70;28.30
41220;DHT22;26951;47.338;9.196;2022-08-14T15:16:07;26.60;28.40
41220;DHT22;26951;47.338;9.196;2022-08-14T15:18:52;26.50;29.10
41220;DHT22;26951;47.338;9.196;2022-08-14T15:21:36;26.50;28.70
41220;DHT22;26951;47.338;9.196;2022-08-14T15:24:20;26.50;29.70
41220;DHT22;26951;47.338;9.196;2022-08-14T15:27:05;26.40;29.50
41220;DHT22;26951;47.338;9.196;2022-08-14T15:29:49;26.30;28.90
41220;DHT22;26951;47.338;9.196;2022-08-14T15:32:33;26.20;28.60
41220;DHT22;26951;47.338;9.196;2022-08-14T15:35:18;26.10;28.60
41220;DHT22;26951;47.338;9.196;2022-08-14T15:38:04;25.90;29.40
41220;DHT22;26951;47.338;9.196;2022-08-14T15:40:51;25.80;28.80
41220;DHT22;26951;47.338;9.196;2022-08-14T15:43:36;25.60;28.90
41220;DHT22;26951;47.338;9.196;2022-08-14T15:46:20;25.50;28.70
41220;DHT22;26951;47.338;9.196;2022-08-14T15:49:04;25.40;29.30
41220;DHT22;26951;47.338;9.196;2022-08-14T15:51:50;25.30;28.60
41220;DHT22;26951;47.338;9.196;2022-08-14T15:54:35;25.20;29.20
41220;DHT22;26951;47.338;9.196;2022-08-14T15:57:19;25.10;29.50
41220;DHT22;26951;47.338;9.196;2022-08-14T16:00:07;25.00;30.20
41220;DHT22;26951;47.338;9.196;2022-08-14T16:03:11;24.90;30.40
41220;DHT22;26951;47.338;9.196;2022-08-14T16:05:56;24.90;29.70
41220;DHT22;26951;47.338;9.196;2022-08-14T16:08:48;24.80;31.30
41220;DHT22;26951;47.338;9.196;2022-08-14T16:11:32;24.60;31.80
41220;DHT22;26951;47.338;9.196;2022-08-14T16:14:16;24.50;31.30
41220;DHT22;26951;47.338;9.196;2022-08-14T16:17:00;24.40;31.50
41220;DHT22;26951;47.338;9.196;2022-08-14T16:19:44;24.40;31.40
41220;DHT22;26951;47.338;9.196;2022-08-14T16:22:31;24.20;32.30
41220;DHT22;26951;47.338;9.196;2022-08-14T16:25:17;24.20;32.20
41220;DHT22;26951;47.338;9.196;2022-08-14T16:28:05;24.20;32.60
41220;DHT22;26951;47.338;9.196;2022-08-14T16:30:51;24.20;32.40
41220;DHT22;26951;47.338;9.196;2022-08-14T16:33:36;24.20;31.70
41220;DHT22;26951;47.338;9.196;2022-08-14T16:36:21;24.20;32.20
41220;DHT22;26951;47.338;9.196;2022-08-14T16:39:06;24.20;31.90
41220;DHT22;26951;47.338;9.196;2022-08-14T16:41:51;24.10;31.30
41220;DHT22;26951;47.338;9.196;2022-08-14T16:44:37;24.00;31.80
41220;DHT22;26951;47.338;9.196;2022-08-14T16:47:23;24.00;32.10
41220;DHT22;26951;47.338;9.196;2022-08-14T16:50:08;23.90;32.80
41220;DHT22;26951;47.338;9.196;2022-08-14T16:52:54;24.00;32.60
41220;DHT22;26951;47.338;9.196;2022-08-14T16:55:39;23.90;33.20
41220;DHT22;26951;47.338;9.196;2022-08-14T16:58:23;23.90;34.20
41220;DHT22;26951;47.338;9.196;2022-08-14T17:01:20;23.80;34.40
41220;DHT22;26951;47.338;9.196;2022-08-14T17:04:08;23.70;34.30
41220;DHT22;26951;47.338;9.196;2022-08-14T17:06:54;23.70;34.20
41220;DHT22;26951;47.338;9.196;2022-08-14T17:12:28;23.60;33.70
41220;DHT22;26951;47.338;9.196;2022-08-14T17:15:14;23.60;34.60
41220;DHT22;26951;47.338;9.196;2022-08-14T17:17:59;23.50;34.90
41220;DHT22;26951;47.338;9.196;2022-08-14T17:20:43;23.50;35.10
41220;DHT22;26951;47.338;9.196;2022-08-14T17:23:31;23.40;35.40
41220;DHT22;26951;47.338;9.196;2022-08-14T17:26:39;23.30;35.90
41220;DHT22;26951;47.338;9.196;2022-08-14T17:29:33;23.30;36.20
41220;DHT22;26951;47.338;9.196;2022-08-14T17:32:17;23.30;35.70
41220;DHT22;26951;47.338;9.196;2022-08-14T17:35:04;23.30;35.80
41220;DHT22;26951;47.338;9.196;2022-08-14T17:37:50;23.20;36.80
41220;DHT22;26951;47.338;9.196;2022-08-14T17:40:36;23.10;37.20
41220;DHT22;26951;47.338;9.196;2022-08-14T17:43:28;23.00;38.50
41220;DHT22;26951;47.338;9.196;2022-08-14T17:46:12;22.90;38.60
41220;DHT22;26951;47.338;9.196;2022-08-14T17:49:04;22.90;38.30
41220;DHT22;26951;47.338;9.196;2022-08-14T17:52:01;22.80;38.30